createdAt,value
2017-07-30T00:00:56.757Z,11.37
2017-07-30T00:03:24.301Z,10.57
2017-07-30T00:05:51.849Z,11.30
2017-07-30T00:08:19.446Z,11.97
2017-07-30T00:10:46.998Z,10.80
2017-07-30T00:13:14.541Z,11.20
2017-07-30T00:15:42.149Z,10.10
2017-07-30T00:18:09.697Z,10.70
2017-07-30T00:20:37.243Z,11.90
2017-07-30T00:23:04.824Z,12.20
2017-07-30T00:25:32.373Z,11.73
2017-07-30T00:27:59.918Z,13.50
2017-07-30T00:30:27.502Z,13.63
2017-07-30T00:32:55.041Z,13.80
2017-07-30T00:35:22.585Z,15.73
2017-07-30T00:37:50.505Z,15.27
2017-07-30T00:40:18.053Z,15.23
2017-07-30T00:42:45.593Z,13.70
2017-07-30T00:45:13.205Z,13.93
2017-07-30T00:47:40.755Z,16.03
2017-07-30T00:50:08.302Z,14.80
2017-07-30T00:52:35.894Z,16.00
2017-07-30T00:55:03.440Z,14.60
2017-07-30T00:57:31.008Z,14.57
2017-07-30T00:59:58.621Z,13.90
2017-07-30T01:02:26.169Z,14.07
2017-07-30T01:04:53.733Z,13.40
2017-07-30T01:07:21.304Z,14.97
2017-07-30T01:09:48.845Z,13.60
2017-07-30T01:12:16.393Z,14.63
2017-07-30T01:14:43.965Z,14.70
2017-07-30T01:17:11.513Z,14.87
2017-07-30T01:19:39.065Z,14.13
2017-07-30T01:22:06.689Z,14.40
2017-07-30T01:24:34.234Z,14.60
2017-07-30T01:27:01.782Z,13.33
2017-07-30T01:29:29.354Z,12.80
2017-07-30T01:31:56.901Z,12.20
2017-07-30T01:34:24.443Z,13.57
2017-07-30T01:36:52.016Z,12.20
2017-07-30T01:39:19.613Z,12.00
2017-07-30T01:41:47.153Z,12.87
2017-07-30T01:44:14.771Z,13.90
2017-07-30T01:46:42.319Z,13.47
2017-07-30T01:49:09.869Z,13.53
2017-07-30T01:51:37.489Z,14.47
2017-07-30T01:54:05.033Z,12.93
2017-07-30T01:56:32.587Z,14.03
2017-07-30T01:59:00.169Z,12.43
2017-07-30T02:01:27.725Z,14.30
2017-07-30T02:03:55.265Z,14.13
2017-07-30T02:06:22.876Z,12.53
2017-07-30T02:08:50.420Z,11.47
2017-07-30T02:11:17.962Z,12.63
2017-07-30T02:13:45.549Z,13.40
2017-07-30T02:16:13.094Z,12.97
2017-07-30T02:18:40.647Z,13.60
2017-07-30T02:21:08.220Z,13.03
2017-07-30T02:23:35.773Z,13.57
2017-07-30T02:26:03.318Z,12.80
2017-07-30T02:28:30.935Z,13.73
2017-07-30T02:30:58.647Z,13.10
2017-07-30T02:33:26.186Z,12.83
2017-07-30T02:35:53.770Z,13.50
2017-07-30T02:38:21.314Z,12.57
2017-07-30T02:40:49.504Z,11.90
2017-07-30T02:43:17.070Z,12.07
2017-07-30T02:45:44.613Z,13.40
2017-07-30T02:48:12.165Z,12.87
2017-07-30T02:50:39.827Z,13.87
2017-07-30T02:53:07.376Z,11.80
2017-07-30T02:55:34.928Z,12.30
2017-07-30T02:58:02.609Z,12.57
2017-07-30T03:00:30.154Z,13.83
2017-07-30T03:02:57.705Z,13.10
2017-07-30T03:05:25.279Z,12.50
2017-07-30T03:07:53.731Z,13.10
2017-07-30T03:10:21.282Z,12.13
2017-07-30T03:12:48.891Z,12.73
2017-07-30T03:15:16.436Z,10.87
2017-07-30T03:17:43.982Z,12.87
2017-07-30T03:20:11.572Z,11.37
2017-07-30T03:22:39.113Z,12.73
2017-07-30T03:25:06.658Z,11.17
2017-07-30T03:27:34.228Z,11.10
2017-07-30T03:30:01.774Z,13.33
2017-07-30T03:32:29.321Z,12.43
2017-07-30T03:34:56.932Z,12.17
2017-07-30T03:37:24.481Z,11.67
2017-07-30T03:39:52.020Z,12.20
2017-07-30T03:42:19.877Z,11.30
2017-07-30T03:44:47.425Z,11.13
2017-07-30T03:47:15.889Z,11.40
2017-07-30T03:49:43.466Z,13.30
2017-07-30T03:52:11.021Z,10.40
2017-07-30T03:54:38.568Z,10.73
2017-07-30T03:57:06.216Z,11.23
2017-07-30T03:59:33.805Z,10.47
2017-07-30T04:02:01.346Z,11.47
2017-07-30T04:04:28.983Z,11.37
2017-07-30T04:06:56.521Z,11.20
2017-07-30T04:09:24.071Z,11.40
2017-07-30T04:11:51.641Z,12.37
2017-07-30T04:14:19.185Z,12.30
2017-07-30T04:16:46.733Z,11.23
2017-07-30T04:19:14.382Z,11.53
2017-07-30T04:21:42.814Z,10.70
2017-07-30T04:24:10.361Z,10.50
2017-07-30T04:26:37.929Z,10.77
2017-07-30T04:29:05.477Z,11.47
2017-07-30T04:31:33.030Z,10.53
2017-07-30T04:34:00.613Z,10.40
2017-07-30T04:36:28.167Z,10.40
2017-07-30T04:38:55.717Z,10.30
2017-07-30T04:41:23.364Z,8.90
2017-07-30T04:43:51.257Z,10.70
2017-07-30T04:46:18.801Z,10.50
2017-07-30T04:48:46.377Z,11.40
2017-07-30T04:51:13.920Z,9.70
2017-07-30T04:53:41.465Z,9.70
2017-07-30T04:56:09.048Z,9.80
2017-07-30T04:58:36.589Z,8.33
2017-07-30T05:01:04.137Z,9.13
2017-07-30T05:03:31.897Z,9.93
2017-07-30T05:05:59.432Z,8.97
2017-07-30T05:08:26.978Z,9.00
2017-07-30T05:10:54.604Z,8.50
2017-07-30T05:13:22.144Z,8.97
2017-07-30T05:15:49.690Z,8.90
2017-07-30T05:18:17.264Z,8.20
2017-07-30T05:20:44.821Z,9.27
2017-07-30T05:23:12.359Z,8.80
2017-07-30T05:25:39.981Z,8.70
2017-07-30T05:28:07.521Z,7.70
2017-07-30T05:30:35.068Z,7.30
2017-07-30T05:33:02.825Z,8.47
2017-07-30T05:35:30.366Z,7.37
2017-07-30T05:37:57.901Z,7.57
2017-07-30T05:40:25.478Z,6.50
2017-07-30T05:42:53.017Z,7.20
2017-07-30T05:45:20.754Z,6.50
2017-07-30T05:47:48.603Z,6.13
2017-07-30T05:50:16.141Z,5.97
2017-07-30T05:52:43.679Z,6.53
2017-07-30T05:55:11.259Z,6.10
2017-07-30T05:57:38.803Z,6.00
2017-07-30T06:00:06.350Z,5.50
2017-07-30T06:02:33.946Z,5.50
2017-07-30T06:05:01.489Z,5.20
2017-07-30T06:07:29.034Z,5.77
2017-07-30T06:09:56.645Z,5.80
2017-07-30T06:12:24.185Z,7.30
2017-07-30T06:14:51.717Z,5.50
2017-07-30T06:17:19.324Z,5.23
2017-07-30T06:19:46.858Z,4.93
2017-07-30T06:22:14.409Z,4.20
2017-07-30T06:24:41.989Z,4.20
2017-07-30T06:27:09.530Z,4.20
2017-07-30T06:29:37.065Z,3.70
2017-07-30T06:32:04.806Z,4.00
2017-07-30T06:34:32.353Z,3.43
2017-07-30T06:36:59.906Z,3.97
2017-07-30T06:39:27.566Z,2.60
2017-07-30T06:41:55.207Z,2.80
2017-07-30T06:44:22.843Z,3.07
2017-07-30T06:46:50.727Z,2.67
2017-07-30T06:49:18.268Z,2.53
2017-07-30T06:51:45.805Z,2.60
2017-07-30T06:54:13.413Z,2.57
2017-07-30T06:56:40.957Z,2.63
2017-07-30T06:59:08.500Z,2.73
2017-07-30T07:01:36.080Z,3.17
2017-07-30T07:04:03.629Z,3.50
2017-07-30T07:06:31.165Z,3.63
2017-07-30T07:08:58.753Z,3.20
2017-07-30T07:11:26.310Z,3.23
2017-07-30T07:13:54.436Z,3.10
2017-07-30T07:16:22.274Z,2.80
2017-07-30T07:18:50.973Z,3.40
2017-07-30T07:21:18.521Z,3.13
2017-07-30T07:23:46.146Z,3.30
2017-07-30T07:26:13.694Z,3.77
2017-07-30T07:28:41.246Z,3.57
2017-07-30T07:31:08.816Z,3.43
2017-07-30T07:33:36.364Z,4.13
2017-07-30T07:36:03.932Z,3.70
2017-07-30T07:38:31.573Z,3.13
2017-07-30T07:40:59.113Z,3.97
2017-07-30T07:43:26.653Z,3.23
2017-07-30T07:45:55.405Z,3.37
2017-07-30T07:48:23.122Z,3.70
2017-07-30T07:50:51.221Z,3.77
2017-07-30T07:53:20.221Z,3.77
2017-07-30T07:55:47.819Z,2.93
2017-07-30T07:58:15.507Z,4.00
2017-07-30T08:00:43.142Z,3.60
2017-07-30T08:03:10.757Z,3.20
2017-07-30T08:05:38.316Z,3.13
2017-07-30T08:08:05.886Z,3.90
2017-07-30T08:10:33.454Z,3.60
2017-07-30T08:13:01.002Z,2.87
2017-07-30T08:15:29.210Z,2.30
2017-07-30T08:17:56.778Z,2.20
2017-07-30T08:20:24.338Z,2.63
2017-07-30T08:22:51.945Z,2.07
2017-07-30T08:25:19.517Z,2.27
2017-07-30T08:27:47.089Z,2.70
2017-07-30T08:30:14.928Z,2.60
2017-07-30T08:32:42.473Z,2.30
2017-07-30T08:35:10.006Z,2.70
2017-07-30T08:37:37.583Z,2.40
2017-07-30T08:40:05.129Z,2.50
2017-07-30T08:42:32.673Z,5.60
2017-07-30T08:45:00.286Z,3.87
2017-07-30T08:47:27.850Z,2.50
2017-07-30T08:49:55.749Z,2.90
2017-07-30T08:52:23.313Z,2.10
2017-07-30T08:54:50.857Z,2.20
2017-07-30T08:57:18.451Z,2.03
2017-07-30T08:59:46.025Z,2.30
2017-07-30T09:02:13.567Z,2.07
2017-07-30T09:04:41.105Z,1.90
2017-07-30T09:07:08.734Z,1.90
2017-07-30T09:09:36.278Z,1.80
2017-07-30T09:12:03.811Z,1.77
2017-07-30T09:14:31.373Z,1.67
2017-07-30T09:16:58.913Z,1.23
2017-07-30T09:19:26.457Z,1.33
2017-07-30T09:21:54.016Z,1.40
2017-07-30T09:24:21.555Z,1.37
2017-07-30T09:26:49.091Z,1.10
2017-07-30T09:29:16.717Z,1.60
2017-07-30T09:31:44.257Z,1.30
2017-07-30T09:34:11.798Z,1.17
2017-07-30T09:36:39.415Z,0.87
2017-07-30T09:39:06.966Z,2.13
2017-07-30T09:41:34.497Z,1.57
2017-07-30T09:44:02.061Z,1.17
2017-07-30T09:46:29.594Z,1.30
2017-07-30T09:48:57.134Z,1.30
2017-07-30T09:51:25.122Z,1.30
2017-07-30T09:53:52.652Z,2.13
2017-07-30T09:56:20.198Z,2.00
2017-07-30T09:58:47.773Z,1.70
2017-07-30T10:01:15.317Z,1.47
2017-07-30T10:03:42.860Z,1.90
2017-07-30T10:06:10.421Z,2.30
2017-07-30T10:08:37.970Z,2.33
2017-07-30T10:11:05.517Z,1.63
2017-07-30T10:13:33.125Z,2.20
2017-07-30T10:16:00.654Z,2.00
2017-07-30T10:18:28.205Z,1.80
2017-07-30T10:20:55.765Z,1.90
2017-07-30T10:23:23.305Z,1.80
2017-07-30T10:25:50.850Z,1.60
2017-07-30T10:28:18.438Z,2.03
2017-07-30T10:30:46.014Z,1.80
2017-07-30T10:33:13.577Z,1.63
2017-07-30T10:35:41.206Z,1.97
2017-07-30T10:38:08.749Z,4.27
2017-07-30T10:40:36.280Z,2.37
2017-07-30T10:43:03.901Z,1.70
2017-07-30T10:45:31.442Z,1.30
2017-07-30T10:47:58.985Z,1.70
2017-07-30T10:50:26.544Z,1.70
2017-07-30T10:52:54.509Z,1.53
2017-07-30T10:55:22.062Z,1.97
2017-07-30T10:57:49.673Z,1.70
2017-07-30T11:00:17.205Z,2.20
2017-07-30T11:02:44.768Z,1.60
2017-07-30T11:05:12.337Z,1.90
2017-07-30T11:07:39.894Z,2.63
2017-07-30T11:10:07.438Z,1.50
2017-07-30T11:12:35.004Z,1.83
2017-07-30T11:15:02.542Z,1.63
2017-07-30T11:17:30.086Z,1.80
2017-07-30T11:19:57.697Z,1.93
2017-07-30T11:22:25.238Z,2.00
2017-07-30T11:24:52.777Z,2.40
2017-07-30T11:27:20.349Z,1.97
2017-07-30T11:29:47.904Z,1.90
2017-07-30T11:32:15.446Z,2.93
2017-07-30T11:34:43.021Z,1.90
2017-07-30T11:37:10.566Z,1.93
2017-07-30T11:39:38.894Z,1.80
2017-07-30T11:42:06.554Z,1.87
2017-07-30T11:44:38.668Z,2.60
2017-07-30T11:47:06.224Z,2.50
2017-07-30T11:49:33.829Z,3.03
2017-07-30T11:52:01.369Z,2.70
2017-07-30T11:54:29.096Z,3.13
2017-07-30T11:56:56.673Z,3.43
2017-07-30T11:59:24.221Z,2.20
2017-07-30T12:01:51.757Z,2.50
2017-07-30T12:04:19.361Z,2.00
2017-07-30T12:06:46.909Z,2.00
2017-07-30T12:09:14.454Z,1.80
2017-07-30T12:11:42.054Z,2.00
2017-07-30T12:14:09.585Z,1.80
2017-07-30T12:16:37.133Z,2.43
2017-07-30T12:19:04.697Z,1.97
2017-07-30T12:21:32.241Z,2.57
2017-07-30T12:23:59.777Z,2.47
2017-07-30T12:26:27.421Z,2.17
2017-07-30T12:28:54.977Z,2.03
2017-07-30T12:31:22.517Z,2.10
2017-07-30T12:33:50.089Z,2.10
2017-07-30T12:36:17.622Z,1.93
2017-07-30T12:38:45.162Z,3.20
2017-07-30T12:41:12.745Z,2.13
2017-07-30T12:43:40.277Z,1.83
2017-07-30T12:46:07.809Z,1.83
2017-07-30T12:48:35.408Z,1.90
2017-07-30T12:51:02.957Z,1.90
2017-07-30T12:53:30.590Z,2.70
2017-07-30T12:55:58.480Z,2.60
2017-07-30T12:58:26.023Z,2.50
2017-07-30T13:00:53.561Z,2.50
2017-07-30T13:03:21.134Z,2.83
2017-07-30T13:05:48.673Z,2.57
2017-07-30T13:08:16.208Z,2.60
2017-07-30T13:10:43.841Z,2.80
2017-07-30T13:13:11.385Z,2.50
2017-07-30T13:15:38.921Z,2.57
2017-07-30T13:18:06.493Z,2.10
2017-07-30T13:20:34.034Z,2.20
2017-07-30T13:23:01.585Z,2.30
2017-07-30T13:25:29.154Z,2.33
2017-07-30T13:27:56.708Z,2.43
2017-07-30T13:30:24.250Z,2.20
2017-07-30T13:32:51.864Z,2.30
2017-07-30T13:35:19.410Z,2.13
2017-07-30T13:37:46.944Z,2.13
2017-07-30T13:40:14.513Z,2.23
2017-07-30T13:42:42.057Z,2.67
2017-07-30T13:45:09.629Z,2.27
2017-07-30T13:47:37.205Z,2.13
2017-07-30T13:50:04.756Z,2.37
2017-07-30T13:52:32.293Z,2.50
2017-07-30T13:54:59.936Z,2.70
2017-07-30T13:57:27.772Z,2.10
2017-07-30T13:59:55.318Z,2.80
2017-07-30T14:02:22.921Z,2.20
2017-07-30T14:04:50.469Z,2.50
2017-07-30T14:07:18.018Z,2.17
2017-07-30T14:09:45.586Z,2.60
2017-07-30T14:12:13.130Z,2.47
2017-07-30T14:14:40.669Z,2.00
2017-07-30T14:17:08.273Z,1.90
2017-07-30T14:19:35.804Z,2.57
2017-07-30T14:22:03.337Z,2.23
2017-07-30T14:24:30.909Z,2.23
2017-07-30T14:26:58.455Z,2.03
2017-07-30T14:29:25.993Z,2.20
2017-07-30T14:31:53.580Z,2.10
2017-07-30T14:34:21.112Z,2.10
2017-07-30T14:36:48.653Z,2.17
2017-07-30T14:39:16.257Z,1.73
2017-07-30T14:41:43.793Z,2.20
2017-07-30T14:44:11.334Z,2.03
2017-07-30T14:46:38.909Z,2.10
2017-07-30T14:49:06.453Z,2.30
2017-07-30T14:51:33.993Z,2.40
2017-07-30T14:54:01.569Z,1.97
2017-07-30T14:56:29.126Z,2.17
2017-07-30T14:58:56.741Z,2.63
2017-07-30T15:01:24.345Z,2.20
2017-07-30T15:03:51.888Z,2.20
2017-07-30T15:06:19.426Z,2.30
2017-07-30T15:08:47.041Z,2.30
2017-07-30T15:11:14.572Z,2.13
2017-07-30T15:13:42.118Z,2.50
2017-07-30T15:16:09.687Z,2.60
2017-07-30T15:18:37.234Z,2.30
2017-07-30T15:21:04.778Z,2.17
2017-07-30T15:23:32.496Z,2.50
2017-07-30T15:26:00.037Z,2.73
2017-07-30T15:28:27.590Z,2.40
2017-07-30T15:30:55.160Z,2.40
2017-07-30T15:33:22.697Z,2.50
2017-07-30T15:35:50.237Z,2.13
2017-07-30T15:38:17.804Z,2.10
2017-07-30T15:40:45.357Z,2.20
2017-07-30T15:43:12.908Z,2.40
2017-07-30T15:45:40.521Z,2.60
2017-07-30T15:48:08.053Z,2.70
2017-07-30T15:50:35.637Z,2.43
2017-07-30T15:53:03.209Z,2.80
2017-07-30T15:55:30.754Z,2.40
2017-07-30T15:57:58.301Z,2.53
2017-07-30T16:00:26.161Z,2.70
2017-07-30T16:02:53.701Z,2.27
2017-07-30T16:05:21.259Z,2.13
2017-07-30T16:07:48.874Z,2.40
2017-07-30T16:10:16.418Z,2.40
2017-07-30T16:12:43.970Z,2.50
2017-07-30T16:15:11.573Z,2.83
2017-07-30T16:17:39.112Z,2.63
2017-07-30T16:20:06.666Z,2.23
2017-07-30T16:22:34.233Z,2.60
2017-07-30T16:25:01.769Z,2.37
2017-07-30T16:27:29.306Z,2.60
2017-07-30T16:29:56.913Z,3.63
2017-07-30T16:32:24.458Z,3.07
2017-07-30T16:34:51.997Z,3.00
2017-07-30T16:37:19.562Z,3.20
2017-07-30T16:39:47.130Z,3.73
2017-07-30T16:42:14.674Z,3.27
2017-07-30T16:44:42.249Z,3.40
2017-07-30T16:47:09.795Z,3.77
2017-07-30T16:49:37.342Z,3.63
2017-07-30T16:52:04.957Z,3.73
2017-07-30T16:54:32.501Z,3.07
2017-07-30T16:57:00.847Z,3.60
2017-07-30T16:59:28.421Z,3.47
2017-07-30T17:01:56.263Z,4.17
2017-07-30T17:04:23.809Z,4.43
2017-07-30T17:06:51.374Z,4.20
2017-07-30T17:09:18.946Z,3.63
2017-07-30T17:11:46.505Z,3.40
2017-07-30T17:14:14.467Z,4.47
2017-07-30T17:16:42.009Z,3.40
2017-07-30T17:19:09.561Z,4.30
2017-07-30T17:35:02.528Z,3.50
2017-07-30T17:37:30.080Z,4.30
2017-07-30T17:39:57.639Z,5.77
2017-07-30T17:42:25.200Z,6.73
2017-07-30T17:44:52.740Z,4.70
2017-07-30T17:47:20.281Z,5.20
2017-07-30T17:49:47.856Z,5.00
2017-07-30T17:52:15.396Z,4.30
2017-07-30T17:54:42.932Z,4.60
2017-07-30T17:57:10.664Z,5.00
2017-07-30T17:59:38.217Z,4.17
2017-07-30T18:02:06.031Z,4.10
2017-07-30T18:04:33.607Z,4.80
2017-07-30T18:07:01.156Z,4.10
2017-07-30T18:09:28.717Z,5.90
2017-07-30T18:11:56.573Z,7.10
2017-07-30T18:14:24.883Z,5.97
2017-07-30T18:16:52.576Z,5.87
2017-07-30T18:19:20.329Z,5.83
2017-07-30T18:21:47.861Z,5.87
2017-07-30T18:24:15.401Z,5.47
2017-07-30T18:26:42.980Z,5.30
2017-07-30T18:29:10.517Z,5.40
2017-07-30T18:31:38.056Z,6.30
2017-07-30T18:34:05.616Z,7.23
2017-07-30T18:36:33.152Z,6.43
2017-07-30T18:39:00.696Z,6.00
2017-07-30T18:41:28.868Z,5.77
2017-07-30T18:43:56.405Z,5.07
2017-07-30T18:46:23.953Z,6.03
2017-07-30T18:48:51.525Z,6.23
2017-07-30T18:51:19.059Z,5.37
2017-07-30T18:53:46.590Z,5.57
2017-07-30T18:56:14.194Z,5.40
2017-07-30T18:58:41.732Z,7.00
2017-07-30T19:01:09.273Z,7.10
2017-07-30T19:03:37.201Z,5.77
2017-07-30T19:06:04.740Z,4.80
2017-07-30T19:08:32.480Z,5.70
2017-07-30T19:11:00.969Z,6.30
2017-07-30T19:13:28.615Z,6.10
2017-07-30T19:15:56.181Z,5.73
2017-07-30T19:18:23.757Z,5.90
2017-07-30T19:20:52.066Z,6.23
2017-07-30T19:23:19.608Z,6.63
2017-07-30T19:25:47.212Z,6.53
2017-07-30T19:28:14.749Z,6.10
2017-07-30T19:30:42.427Z,7.07
2017-07-30T19:33:10.021Z,7.27
2017-07-30T19:35:37.637Z,7.20
2017-07-30T19:38:05.198Z,6.20
2017-07-30T19:40:33.529Z,5.80
2017-07-30T19:43:01.129Z,6.10
2017-07-30T19:45:28.685Z,5.37
2017-07-30T19:47:56.389Z,5.70
2017-07-30T19:50:23.937Z,5.67
2017-07-30T19:52:51.494Z,4.47
2017-07-30T19:55:19.109Z,4.90
2017-07-30T19:57:47.298Z,4.77
2017-07-30T20:00:14.888Z,3.90
2017-07-30T20:02:42.471Z,2.87
2017-07-30T20:05:10.465Z,3.70
2017-07-30T20:07:40.460Z,4.40
2017-07-30T20:10:08.083Z,4.03
2017-07-30T20:12:35.710Z,4.13
2017-07-30T20:15:03.269Z,4.07
2017-07-30T20:17:31.618Z,3.90
2017-07-30T20:19:59.165Z,4.13
2017-07-30T20:22:26.709Z,4.70
2017-07-30T20:24:54.292Z,4.83
2017-07-30T20:27:21.858Z,4.53
2017-07-30T20:29:49.441Z,4.03
2017-07-30T20:32:17.039Z,3.90
2017-07-30T20:34:48.337Z,4.87
2017-07-30T20:37:16.785Z,5.30
2017-07-30T20:39:45.156Z,4.53
2017-07-30T20:42:12.849Z,4.13
2017-07-30T20:44:40.523Z,4.80
2017-07-30T20:47:08.172Z,4.53
2017-07-30T20:49:36.564Z,5.20
2017-07-30T20:52:04.097Z,5.40
2017-07-30T20:54:31.737Z,5.90
2017-07-30T20:56:59.356Z,3.97
2017-07-30T20:59:27.141Z,5.27
2017-07-30T21:01:54.740Z,4.37
2017-07-30T21:04:22.345Z,4.40
2017-07-30T21:06:50.396Z,4.10
2017-07-30T21:09:18.012Z,4.33
2017-07-30T21:11:45.631Z,3.80
2017-07-30T21:14:13.232Z,4.20
2017-07-30T21:16:40.867Z,4.20
2017-07-30T21:19:08.409Z,5.27
2017-07-30T21:21:35.984Z,4.87
2017-07-30T21:24:03.605Z,5.20
2017-07-30T21:26:31.559Z,4.80
2017-07-30T21:28:59.178Z,4.23
2017-07-30T21:31:26.834Z,3.70
2017-07-30T21:33:54.463Z,3.80
2017-07-30T21:36:22.068Z,3.80
2017-07-30T21:38:49.712Z,4.37
2017-07-30T21:41:18.092Z,3.10
2017-07-30T21:43:45.717Z,4.00
2017-07-30T21:46:13.542Z,3.53
2017-07-30T21:48:41.161Z,3.57
2017-07-30T21:51:09.001Z,3.47
2017-07-30T21:53:36.652Z,3.33
2017-07-30T21:56:04.267Z,3.23
2017-07-30T21:58:32.069Z,3.70
2017-07-30T22:00:59.743Z,3.00
2017-07-30T22:03:27.530Z,3.50
2017-07-30T22:05:55.178Z,3.27
2017-07-30T22:08:24.260Z,4.27
2017-07-30T22:10:52.389Z,3.00
2017-07-30T22:13:26.594Z,3.20
2017-07-30T22:15:54.169Z,2.87
2017-07-30T22:18:21.790Z,5.00
2017-07-30T22:20:49.417Z,4.20
2017-07-30T22:23:17.793Z,4.43
2017-07-30T22:25:45.344Z,4.00
2017-07-30T22:28:22.831Z,4.37
2017-07-30T22:40:15.457Z,4.13
2017-07-30T22:42:43.041Z,4.97
2017-07-30T22:45:10.661Z,4.70
2017-07-30T22:47:38.253Z,4.90
2017-07-30T22:50:05.872Z,5.20
2017-07-30T22:52:33.476Z,5.10
2017-07-30T22:55:01.094Z,5.53
2017-07-30T22:57:28.665Z,4.43
2017-07-30T22:59:56.244Z,4.20
2017-07-30T23:02:23.897Z,4.50
2017-07-30T23:04:52.253Z,4.73
2017-07-30T23:07:19.788Z,4.13
2017-07-30T23:09:47.750Z,5.40
2017-07-30T23:12:17.449Z,6.30
2017-07-30T23:14:49.517Z,5.77
2017-07-30T23:17:22.009Z,5.30
2017-07-30T23:19:54.571Z,5.70
2017-07-30T23:22:26.055Z,5.77
2017-07-30T23:24:59.623Z,5.23
2017-07-30T23:27:30.764Z,4.33
2017-07-30T23:30:03.135Z,5.50
2017-07-30T23:32:35.165Z,5.33
2017-07-30T23:35:09.730Z,5.13
2017-07-30T23:37:42.716Z,5.13
2017-07-30T23:40:16.230Z,5.37
2017-07-30T23:42:48.300Z,5.30
2017-07-30T23:45:18.913Z,4.80
2017-07-30T23:47:50.055Z,5.40
2017-07-30T23:50:23.349Z,5.83
2017-07-30T23:52:55.416Z,6.40
2017-07-30T23:55:29.016Z,5.30
2017-07-30T23:58:01.081Z,5.73
